Flight Track Log - Related Links

Times and Time Zones

All times are in EDT time to prevent confusion due to time zone crossing. See the SKW5457 flight status page for this flight to view local times or setup timezone preferences in your user account.

Time Position Orientation Groundspeed Altitude Reporting Facility
EDT Latitude Longitude Course Direction KTS MPH feet Rate Location/Type
Tue 09:33:50 AM 38.4733 -122.6644 162° South 325 374 13,900  Level Oakland Center
Tue 09:34:51 AM 38.3886 -122.7064 201° Southwest 330 380 12,400 -1,686 Descending Oakland Center
Tue 09:35:51 AM 38.3069 -122.7508 203° Southwest 322 371 10,500 -1,934 Descending Oakland Center
Tue 09:36:00 AM 37.9533 -122.8085 161° South  Level FlightAware Approximate
Tue 09:36:52 AM 38.2153 -122.7986 202° Southwest 303 349 8,500  Level Oakland Center
Tue 09:37:00 AM 37.8747 -122.7748 161° South  Level FlightAware Approximate
Tue 09:37:53 AM 38.1444 -122.8350 202° Southwest 286 329 7,100  Level Oakland Center
Tue 09:38:00 AM 37.7996 -122.7332 162° South  Level FlightAware Approximate
Tue 09:38:54 AM 38.0767 -122.8644 199° South 263 303 7,000  Level Oakland Center
Tue 09:39:55 AM 38.0122 -122.8375 162° South 245 282 7,000  Level Oakland Center
Tue 09:40:56 AM 37.9481 -122.8117 162° South 244 281 7,000  Level Oakland Center
Tue 09:41:56 AM 37.8847 -122.7842 161° South 244 281 7,000  Level Oakland Center
Tue 09:42:57 AM 37.8219 -122.7569 161° South 242 278 7,000  Level Oakland Center
Tue 09:43:58 AM 37.7664 -122.7172 151° Southeast 242 278 7,000 -98 Level Oakland Center
Tue 09:44:59 AM 37.7122 -122.6478 135° Southeast 234 269 6,800 -639 Descending Oakland Center
Tue 09:46:00 AM 37.6631 -122.5853 135° Southeast 246 283 5,700 -1,033 Descending Oakland Center
Tue 09:47:01 AM 37.6117 -122.5200 135° Southeast 260 299 4,700 -836 Descending Oakland Center
Tue 09:48:02 AM 37.5764 -122.4397 119° Southeast 264 304 4,000 -295 Descending Oakland Center
Tue 09:49:03 AM 37.5531 -122.3736 114° Southeast 221 254 4,100 49 Climbing Oakland Center
Tue 09:50:04 AM 37.5183 -122.3261 133° Southeast 194 223 4,100 -49 Level Oakland Center
Tue 09:51:05 AM 37.4831 -122.2758 131° Southeast 192 221 4,000 -49 Descending Oakland Center
Tue 09:52:06 AM 37.4781 -122.2081 95° East 197 227 4,000 -492 Level Oakland Center
Tue 09:53:07 AM 37.5178 -122.1644 41° Northeast 210 242 3,000 -738 Descending Oakland Center
Tue 09:54:08 AM 37.5594 -122.1839 340° North 204 235 2,500 -492 Descending Oakland Center

Login

Don't have an account? Register now (free) for customized features, flight alerts, and more!